createdAt,value
2022-10-09T00:00:50.363Z,4.95
2022-10-09T00:04:53.161Z,4.05
2022-10-09T00:08:56.260Z,4.57
2022-10-09T00:12:59.124Z,4.38
2022-10-09T00:17:02.109Z,4.75
2022-10-09T00:21:06.321Z,4.90
2022-10-09T00:25:10.211Z,4.30
2022-10-09T00:29:13.223Z,4.80
2022-10-09T00:33:16.657Z,3.92
2022-10-09T00:37:19.768Z,5.18
2022-10-09T00:41:29.490Z,4.85
2022-10-09T00:45:32.635Z,5.18
2022-10-09T00:49:35.503Z,5.65
2022-10-09T00:53:38.736Z,8.05
2022-10-09T00:57:43.213Z,10.13
2022-10-09T01:01:46.852Z,10.55
2022-10-09T01:06:27.570Z,7.82
2022-10-09T01:10:46.697Z,11.13
2022-10-09T01:15:18.922Z,15.50
2022-10-09T01:19:40.124Z,15.10
2022-10-09T01:24:02.136Z,10.55
2022-10-09T01:28:07.484Z,7.10
2022-10-09T01:32:15.989Z,6.32
2022-10-09T01:36:20.293Z,5.53
2022-10-09T01:40:25.677Z,4.63
2022-10-09T01:44:32.413Z,4.57
2022-10-09T01:52:53.465Z,4.88
2022-10-09T01:56:59.043Z,5.07
2022-10-09T02:01:04.609Z,4.80
2022-10-09T02:05:09.824Z,4.50
2022-10-09T02:09:15.600Z,4.43
2022-10-09T02:13:19.167Z,4.25
2022-10-09T02:17:29.629Z,4.65
2022-10-09T02:22:10.866Z,4.88
2022-10-09T02:26:14.317Z,4.35
2022-10-09T02:30:18.722Z,4.50
2022-10-09T02:34:22.809Z,5.80
2022-10-09T02:38:25.772Z,4.85
2022-10-09T02:42:28.517Z,4.70
2022-10-09T02:46:31.582Z,5.30
2022-10-09T02:50:35.960Z,5.75
2022-10-09T02:54:38.791Z,6.43
2022-10-09T02:58:41.722Z,6.85
2022-10-09T03:02:45.189Z,5.88
2022-10-09T03:06:48.190Z,6.95
2022-10-09T03:10:51.910Z,6.70
2022-10-09T03:14:55.483Z,5.78
2022-10-09T03:18:58.951Z,5.72
2022-10-09T03:23:01.713Z,6.45
2022-10-09T03:27:04.884Z,6.47
2022-10-09T03:31:08.638Z,6.35
2022-10-09T03:35:11.613Z,7.05
2022-10-09T03:39:14.552Z,7.00
2022-10-09T03:43:17.506Z,5.70
2022-10-09T03:47:20.333Z,5.68
2022-10-09T03:51:23.212Z,6.80
2022-10-09T03:55:26.309Z,6.15
2022-10-09T03:59:29.489Z,7.07
2022-10-09T04:03:32.289Z,5.60
2022-10-09T04:07:35.155Z,5.70
2022-10-09T04:11:38.033Z,5.65
2022-10-09T04:15:40.847Z,4.85
2022-10-09T04:19:43.707Z,5.18
2022-10-09T04:23:46.803Z,5.65
2022-10-09T04:27:49.700Z,5.13
2022-10-09T04:31:53.128Z,5.95
2022-10-09T04:35:57.626Z,5.10
2022-10-09T04:40:00.486Z,4.85
2022-10-09T04:44:04.096Z,5.22
2022-10-09T04:48:07.350Z,5.28
2022-10-09T04:52:15.508Z,4.93
2022-10-09T04:56:21.024Z,5.03
2022-10-09T05:00:24.467Z,4.75
2022-10-09T05:04:29.662Z,5.55
2022-10-09T05:08:35.753Z,5.15
2022-10-09T05:12:41.244Z,4.90
2022-10-09T05:17:08.428Z,4.72
2022-10-09T05:21:10.781Z,5.28
2022-10-09T05:42:13.942Z,5.63
2022-10-09T05:46:27.621Z,5.40
2022-10-09T05:50:33.440Z,5.57
2022-10-09T05:54:37.219Z,6.33
2022-10-09T05:58:51.780Z,6.65
2022-10-09T06:02:58.772Z,6.22
2022-10-09T06:07:02.825Z,6.10
2022-10-09T06:11:19.964Z,6.20
2022-10-09T06:15:25.677Z,6.18
2022-10-09T06:19:57.613Z,6.13
2022-10-09T06:24:29.030Z,5.60
2022-10-09T06:28:34.955Z,6.20
2022-10-09T06:32:39.519Z,6.13
2022-10-09T06:36:46.648Z,6.65
2022-10-09T06:40:50.849Z,8.20
2022-10-09T06:44:58.135Z,8.75
2022-10-09T06:49:09.107Z,8.25
2022-10-09T06:53:14.823Z,7.53
2022-10-09T06:57:22.270Z,7.85
2022-10-09T07:01:30.490Z,8.05
2022-10-09T07:05:35.957Z,9.63
2022-10-09T07:09:45.698Z,9.65
2022-10-09T07:14:21.041Z,10.32
2022-10-09T07:18:54.515Z,12.40
2022-10-09T07:23:24.369Z,13.65
2022-10-09T07:28:24.997Z,15.85
2022-10-09T07:32:28.915Z,22.27
2022-10-09T07:44:24.470Z,21.98
2022-10-09T07:55:14.417Z,22.90
2022-10-09T07:59:17.898Z,22.48
2022-10-09T08:03:21.052Z,22.52
2022-10-09T08:07:23.758Z,19.05
2022-10-09T08:11:28.937Z,213.45
2022-10-09T08:15:31.663Z,387.80
2022-10-09T08:19:34.636Z,519.17
2022-10-09T08:23:37.430Z,351.73
2022-10-09T08:27:40.216Z,386.35
2022-10-09T08:31:43.273Z,74.43
2022-10-09T08:35:47.059Z,64.97
2022-10-09T08:39:49.882Z,155.85
2022-10-09T08:44:01.750Z,66.30
2022-10-09T08:48:20.498Z,56.20
2022-10-09T08:52:41.661Z,32.30
2022-10-09T08:56:45.103Z,28.33
2022-10-09T09:00:55.087Z,22.67
2022-10-09T09:05:25.111Z,26.67
2022-10-09T09:09:36.310Z,24.35
2022-10-09T09:13:54.347Z,23.90
2022-10-09T09:18:19.200Z,22.95
2022-10-09T09:22:24.593Z,20.02
2022-10-09T09:26:27.770Z,17.23
2022-10-09T09:30:41.397Z,15.00
2022-10-09T09:34:48.880Z,13.02
2022-10-09T09:39:36.207Z,12.73
2022-10-09T09:43:19.310Z,11.52
2022-10-09T09:47:30.283Z,11.32
2022-10-09T09:51:33.446Z,10.38
2022-10-09T09:55:41.497Z,10.52
2022-10-09T09:59:44.798Z,9.48
2022-10-09T10:03:50.768Z,10.70
2022-10-09T10:07:54.361Z,8.77
2022-10-09T10:12:03.797Z,9.27
2022-10-09T10:16:08.949Z,9.30
2022-10-09T10:20:16.734Z,9.45
2022-10-09T10:24:23.747Z,8.63
2022-10-09T10:28:32.384Z,8.90
2022-10-09T10:32:47.419Z,8.85
2022-10-09T10:37:02.428Z,8.98
2022-10-09T10:41:21.242Z,9.52
2022-10-09T10:45:38.946Z,8.60
2022-10-09T10:49:41.835Z,9.45
2022-10-09T10:53:50.179Z,8.77
2022-10-09T10:58:13.387Z,10.20
2022-10-09T11:02:32.488Z,8.85
2022-10-09T11:06:54.007Z,9.25
2022-10-09T11:11:14.090Z,9.00
2022-10-09T11:15:56.406Z,8.57
2022-10-09T11:20:08.155Z,9.70
2022-10-09T11:24:33.358Z,9.50
2022-10-09T11:28:45.325Z,10.40
2022-10-09T11:32:57.728Z,9.90
2022-10-09T11:37:02.718Z,8.95
2022-10-09T11:41:07.585Z,9.75
2022-10-09T11:45:40.019Z,9.90
2022-10-09T11:50:03.485Z,9.10
2022-10-09T11:54:14.976Z,9.30
2022-10-09T11:58:23.610Z,9.25
2022-10-09T12:02:30.669Z,9.80
2022-10-09T12:06:46.524Z,9.43
2022-10-09T12:11:00.622Z,9.45
2022-10-09T12:15:48.788Z,9.38
2022-10-09T12:20:01.616Z,9.23
2022-10-09T12:24:06.220Z,9.30
2022-10-09T12:28:36.498Z,9.13
2022-10-09T12:32:44.676Z,9.00
2022-10-09T12:36:47.489Z,8.45
2022-10-09T12:40:52.104Z,9.10
2022-10-09T12:44:55.973Z,8.88
2022-10-09T12:49:01.047Z,9.15
2022-10-09T12:53:25.943Z,9.18
2022-10-09T12:57:29.969Z,8.65
2022-10-09T13:01:34.610Z,8.05
2022-10-09T13:05:40.261Z,7.95
2022-10-09T13:09:43.174Z,7.95
2022-10-09T13:13:53.814Z,7.18
2022-10-09T13:17:56.594Z,6.32
2022-10-09T13:22:18.602Z,7.70
2022-10-09T13:26:30.376Z,6.75
2022-10-09T13:30:33.596Z,5.80
2022-10-09T13:34:36.434Z,7.03
2022-10-09T13:38:39.297Z,5.97
2022-10-09T13:42:42.846Z,6.20
2022-10-09T13:46:45.544Z,5.78
2022-10-09T13:50:48.314Z,6.40
2022-10-09T13:54:51.583Z,7.35
2022-10-09T13:58:54.457Z,5.93
2022-10-09T14:02:57.260Z,6.75
2022-10-09T14:07:00.026Z,7.25
2022-10-09T14:11:03.511Z,5.82
2022-10-09T14:15:07.584Z,7.53
2022-10-09T14:19:10.781Z,14.48
2022-10-09T14:23:14.103Z,7.25
2022-10-09T14:27:17.122Z,6.22
2022-10-09T14:31:20.750Z,6.22
2022-10-09T14:35:24.430Z,6.30
2022-10-09T14:39:27.183Z,5.97
2022-10-09T14:43:30.616Z,5.40
2022-10-09T14:47:33.363Z,6.07
2022-10-09T14:51:38.670Z,5.20
2022-10-09T14:55:41.934Z,5.50
2022-10-09T14:59:44.807Z,5.57
2022-10-09T15:03:48.284Z,5.38
2022-10-09T15:07:51.536Z,5.55
2022-10-09T15:11:54.516Z,5.95
2022-10-09T15:16:02.420Z,5.72
2022-10-09T15:20:05.417Z,6.00
2022-10-09T15:24:09.326Z,5.90
2022-10-09T15:28:13.630Z,5.78
2022-10-09T15:32:16.402Z,6.50
2022-10-09T15:36:20.469Z,5.57
2022-10-09T15:40:23.328Z,5.97
2022-10-09T15:44:26.052Z,5.65
2022-10-09T15:48:29.726Z,6.10
2022-10-09T15:52:32.593Z,5.93
2022-10-09T15:56:39.612Z,6.57
2022-10-09T16:00:48.773Z,6.40
2022-10-09T16:04:52.069Z,7.40
2022-10-09T16:08:56.886Z,7.55
2022-10-09T16:12:59.905Z,7.65
2022-10-09T16:17:04.638Z,7.07
2022-10-09T16:21:15.386Z,7.47
2022-10-09T16:25:18.106Z,7.82
2022-10-09T16:29:20.988Z,7.40
2022-10-09T16:33:23.904Z,7.00
2022-10-09T16:37:27.762Z,7.47
2022-10-09T16:41:32.225Z,7.43
2022-10-09T16:45:34.871Z,7.35
2022-10-09T16:49:42.035Z,7.35
2022-10-09T16:54:05.412Z,7.43
2022-10-09T16:58:08.158Z,7.10
2022-10-09T17:02:13.367Z,7.03
2022-10-09T17:06:20.237Z,7.85
2022-10-09T17:10:22.900Z,7.15
2022-10-09T17:14:26.063Z,7.22
2022-10-09T17:18:29.859Z,7.53
2022-10-09T17:22:32.573Z,7.38
2022-10-09T17:26:36.191Z,7.70
2022-10-09T17:30:40.923Z,7.07
2022-10-09T17:34:46.228Z,7.38
2022-10-09T17:38:52.301Z,6.97
2022-10-09T17:42:55.262Z,7.40
2022-10-09T17:46:58.146Z,7.30
2022-10-09T17:51:04.057Z,6.90
2022-10-09T17:55:07.404Z,7.18
2022-10-09T17:59:14.827Z,7.40
2022-10-09T18:03:22.652Z,8.02
2022-10-09T18:07:25.494Z,8.43
2022-10-09T18:11:30.459Z,8.90
2022-10-09T18:15:44.723Z,9.55
2022-10-09T18:19:48.124Z,9.02
2022-10-09T18:23:50.901Z,9.23
2022-10-09T18:27:53.636Z,8.50
2022-10-09T18:31:56.553Z,8.27
2022-10-09T18:36:18.302Z,7.85
2022-10-09T18:40:21.950Z,8.98
2022-10-09T18:44:25.133Z,9.00
2022-10-09T18:48:34.297Z,8.15
2022-10-09T18:52:39.800Z,8.75
2022-10-09T18:56:42.987Z,9.37
2022-10-09T19:00:46.295Z,8.48
2022-10-09T19:04:49.133Z,9.02
2022-10-09T19:08:53.285Z,8.60
2022-10-09T19:13:00.179Z,9.68
2022-10-09T19:17:03.041Z,9.52
2022-10-09T19:21:06.912Z,9.35
2022-10-09T19:25:11.916Z,8.68
2022-10-09T19:29:14.623Z,8.77
2022-10-09T19:33:18.290Z,9.52
2022-10-09T19:37:22.807Z,8.20
2022-10-09T19:41:27.569Z,8.13
2022-10-09T19:45:31.392Z,8.95
2022-10-09T19:49:34.743Z,9.10
2022-10-09T19:53:38.920Z,8.77
2022-10-09T19:57:44.364Z,9.13
2022-10-09T20:01:47.292Z,9.05
2022-10-09T20:05:50.001Z,8.50
2022-10-09T20:09:52.848Z,9.48
2022-10-09T20:13:56.620Z,10.20
2022-10-09T20:17:59.977Z,9.93
2022-10-09T20:22:02.817Z,9.55
2022-10-09T20:26:08.689Z,10.15
2022-10-09T20:30:12.199Z,10.07
2022-10-09T20:34:16.886Z,10.32
2022-10-09T20:38:24.690Z,10.20
2022-10-09T20:42:29.018Z,9.50
2022-10-09T20:46:34.189Z,9.43
2022-10-09T20:50:41.605Z,10.07
2022-10-09T20:54:44.936Z,10.50
2022-10-09T20:58:48.139Z,10.48
2022-10-09T21:02:51.237Z,9.85
2022-10-09T21:06:54.359Z,10.00
2022-10-09T21:10:57.565Z,9.30
2022-10-09T21:15:00.517Z,10.10
2022-10-09T21:19:04.782Z,10.80
2022-10-09T21:23:08.915Z,9.90
2022-10-09T21:27:11.924Z,9.27
2022-10-09T21:31:20.038Z,9.77
2022-10-09T21:35:23.402Z,9.80
2022-10-09T21:39:26.593Z,10.25
2022-10-09T21:43:29.387Z,9.05
2022-10-09T21:47:32.192Z,9.30
2022-10-09T21:51:35.149Z,9.75
2022-10-09T21:55:39.570Z,9.98
2022-10-09T21:59:42.371Z,8.50
2022-10-09T22:03:45.580Z,10.10
2022-10-09T22:07:48.375Z,8.95
2022-10-09T22:11:51.159Z,8.00
2022-10-09T22:15:53.940Z,8.68
2022-10-09T22:19:56.693Z,8.32
2022-10-09T22:24:00.721Z,8.52
2022-10-09T22:28:04.641Z,7.75
2022-10-09T22:32:08.743Z,8.30
2022-10-09T22:36:14.790Z,8.05
2022-10-09T22:40:18.080Z,7.80
2022-10-09T22:44:20.813Z,7.88
2022-10-09T22:48:23.767Z,8.13
2022-10-09T22:52:27.124Z,7.35
2022-10-09T22:56:36.022Z,8.07
2022-10-09T23:00:39.224Z,7.90
2022-10-09T23:04:42.075Z,8.13
2022-10-09T23:08:47.319Z,8.43
2022-10-09T23:12:50.292Z,8.60
2022-10-09T23:16:53.257Z,8.43
2022-10-09T23:20:56.515Z,8.85
2022-10-09T23:24:59.249Z,7.60
2022-10-09T23:29:08.346Z,8.23
2022-10-09T23:33:11.045Z,7.97
2022-10-09T23:37:13.831Z,8.38
2022-10-09T23:41:19.058Z,8.43
2022-10-09T23:45:22.171Z,7.90
2022-10-09T23:49:25.376Z,8.20
2022-10-09T23:53:28.882Z,7.80
2022-10-09T23:57:33.070Z,8.35
